createdAt,value
2023-07-24T00:00:22.103Z,11.15
2023-07-24T00:02:50.646Z,9.55
2023-07-24T00:05:19.238Z,8.55
2023-07-24T00:07:47.788Z,8.93
2023-07-24T00:10:17.699Z,9.40
2023-07-24T00:12:46.446Z,8.38
2023-07-24T00:15:15.009Z,9.60
2023-07-24T00:17:43.507Z,9.80
2023-07-24T00:20:12.316Z,8.93
2023-07-24T00:22:41.829Z,9.20
2023-07-24T00:25:11.252Z,12.68
2023-07-24T00:27:40.901Z,11.15
2023-07-24T00:30:10.422Z,12.27
2023-07-24T00:32:39.158Z,10.73
2023-07-24T00:35:08.700Z,17.40
2023-07-24T00:37:37.205Z,11.23
2023-07-24T00:40:06.122Z,11.93
2023-07-24T00:42:34.632Z,17.40
2023-07-24T00:45:05.511Z,9.85
2023-07-24T00:47:34.310Z,14.23
2023-07-24T00:50:03.009Z,11.05
2023-07-24T00:52:31.562Z,16.25
2023-07-24T00:55:00.256Z,12.70
2023-07-24T00:57:28.829Z,13.48
2023-07-24T00:59:57.578Z,15.93
2023-07-24T01:02:28.193Z,15.48
2023-07-24T01:04:57.046Z,12.45
2023-07-24T01:07:25.664Z,17.08
2023-07-24T01:09:54.174Z,12.90
2023-07-24T01:12:31.455Z,14.23
2023-07-24T01:15:08.727Z,16.83
2023-07-24T01:17:43.810Z,13.07
2023-07-24T01:20:15.924Z,18.50
2023-07-24T01:22:59.647Z,21.20
2023-07-24T01:25:36.614Z,15.85
2023-07-24T01:28:10.409Z,17.27
2023-07-24T01:30:39.048Z,16.20
2023-07-24T01:33:07.903Z,18.05
2023-07-24T01:35:36.937Z,16.05
2023-07-24T01:38:06.222Z,12.93
2023-07-24T01:40:34.953Z,16.08
2023-07-24T01:43:03.731Z,10.73
2023-07-24T01:45:34.114Z,11.93
2023-07-24T01:48:02.697Z,19.55
2023-07-24T01:50:31.233Z,16.20
2023-07-24T01:52:59.842Z,14.38
2023-07-24T01:55:28.320Z,14.45
2023-07-24T01:57:56.740Z,14.50
2023-07-24T02:00:25.148Z,15.32
2023-07-24T02:02:55.689Z,13.00
2023-07-24T02:05:24.476Z,14.23
2023-07-24T02:07:53.125Z,16.63
2023-07-24T02:10:21.505Z,15.50
2023-07-24T02:12:50.054Z,12.52
2023-07-24T02:15:18.499Z,13.20
2023-07-24T02:17:46.903Z,13.82
2023-07-24T02:20:16.830Z,13.93
2023-07-24T02:22:45.532Z,15.75
2023-07-24T02:25:14.091Z,15.55
2023-07-24T02:27:42.527Z,14.43
2023-07-24T02:30:11.558Z,19.15
2023-07-24T02:32:40.084Z,13.65
2023-07-24T02:35:09.509Z,17.70
2023-07-24T02:37:39.141Z,16.77
2023-07-24T02:40:08.811Z,11.68
2023-07-24T02:42:37.191Z,16.45
2023-07-24T02:45:06.498Z,14.10
2023-07-24T02:47:35.060Z,15.70
2023-07-24T02:50:03.546Z,12.65
2023-07-24T02:52:31.973Z,16.10
2023-07-24T02:55:01.918Z,14.57
2023-07-24T02:57:30.476Z,19.73
2023-07-24T02:59:59.128Z,15.35
2023-07-24T03:02:27.626Z,15.82
2023-07-24T03:04:56.543Z,17.70
2023-07-24T03:07:25.060Z,16.85
2023-07-24T03:09:53.795Z,14.20
2023-07-24T03:12:23.647Z,15.00
2023-07-24T03:14:52.120Z,15.27
2023-07-24T03:17:20.793Z,15.07
2023-07-24T03:19:51.331Z,19.13
2023-07-24T03:22:20.116Z,17.33
2023-07-24T03:24:48.755Z,13.93
2023-07-24T03:27:17.174Z,16.65
2023-07-24T03:29:46.962Z,18.73
2023-07-24T03:32:15.452Z,14.50
2023-07-24T03:34:44.370Z,14.48
2023-07-24T03:37:12.860Z,18.83
2023-07-24T03:39:41.305Z,12.45
2023-07-24T03:42:13.595Z,14.57
2023-07-24T03:44:42.737Z,16.30
2023-07-24T03:47:12.382Z,17.75
2023-07-24T03:49:40.825Z,17.45
2023-07-24T03:52:09.259Z,15.07
2023-07-24T03:54:37.777Z,12.70
2023-07-24T03:57:06.930Z,12.70
2023-07-24T03:59:35.617Z,12.55
2023-07-24T04:02:04.032Z,11.30
2023-07-24T04:04:34.448Z,15.73
2023-07-24T04:07:03.585Z,17.27
2023-07-24T04:09:32.096Z,16.45
2023-07-24T04:12:00.558Z,21.02
2023-07-24T04:14:30.787Z,17.30
2023-07-24T04:16:59.285Z,19.85
2023-07-24T04:19:27.709Z,17.67
2023-07-24T04:21:57.571Z,18.55
2023-07-24T04:24:26.390Z,18.00
2023-07-24T04:26:54.864Z,14.75
2023-07-24T04:29:25.058Z,16.70
2023-07-24T04:31:53.478Z,15.02
2023-07-24T04:34:21.809Z,15.20
2023-07-24T04:36:50.579Z,18.25
2023-07-24T04:39:20.205Z,18.73
2023-07-24T04:41:48.675Z,15.20
2023-07-24T04:44:17.147Z,16.80
2023-07-24T04:46:45.582Z,20.10
2023-07-24T04:49:14.033Z,20.50
2023-07-24T04:51:42.574Z,21.55
2023-07-24T04:54:11.323Z,24.50
2023-07-24T04:56:41.138Z,18.58
2023-07-24T04:59:09.586Z,18.83
2023-07-24T05:01:38.692Z,23.90
2023-07-24T05:04:07.395Z,20.25
2023-07-24T05:06:38.383Z,17.23
2023-07-24T05:09:06.960Z,19.58
2023-07-24T05:11:35.495Z,25.75
2023-07-24T05:14:05.268Z,22.15
2023-07-24T05:16:34.001Z,17.60
2023-07-24T05:19:03.063Z,17.60
2023-07-24T05:21:31.708Z,16.42
2023-07-24T05:24:00.264Z,20.85
2023-07-24T05:26:29.148Z,19.63
2023-07-24T05:28:57.903Z,20.48
2023-07-24T05:31:27.825Z,21.80
2023-07-24T05:33:56.567Z,20.88
2023-07-24T05:36:24.952Z,15.57
2023-07-24T05:38:54.745Z,16.10
2023-07-24T05:41:23.180Z,18.67
2023-07-24T05:43:52.554Z,18.20
2023-07-24T05:46:21.023Z,18.75
2023-07-24T05:48:51.158Z,18.98
2023-07-24T05:51:19.623Z,17.95
2023-07-24T05:53:48.120Z,17.13
2023-07-24T05:56:16.819Z,19.30
2023-07-24T05:58:45.312Z,17.50
2023-07-24T06:01:13.793Z,17.42
2023-07-24T06:03:42.363Z,17.52
2023-07-24T06:06:12.118Z,13.10
2023-07-24T06:08:40.447Z,13.40
2023-07-24T06:11:08.958Z,17.15
2023-07-24T06:13:37.663Z,16.42
2023-07-24T06:16:08.429Z,16.05
2023-07-24T06:18:37.064Z,15.20
2023-07-24T06:21:05.698Z,16.27
2023-07-24T06:23:35.691Z,17.88
2023-07-24T06:26:04.233Z,18.55
2023-07-24T06:28:33.510Z,11.07
2023-07-24T06:31:02.120Z,12.05
2023-07-24T06:33:30.736Z,16.30
2023-07-24T06:35:59.278Z,9.98
2023-07-24T06:38:27.694Z,11.55
2023-07-24T06:40:57.543Z,12.10
2023-07-24T06:43:26.001Z,14.65
2023-07-24T06:45:54.461Z,14.02
2023-07-24T06:48:22.973Z,12.60
2023-07-24T06:50:51.263Z,12.80
2023-07-24T06:53:20.181Z,14.32
2023-07-24T06:55:48.622Z,11.85
2023-07-24T06:58:18.407Z,12.88
2023-07-24T07:00:46.825Z,13.43
2023-07-24T07:03:15.257Z,13.32
2023-07-24T07:05:43.820Z,12.63
2023-07-24T07:08:12.376Z,13.43
2023-07-24T07:10:41.269Z,14.98
2023-07-24T07:13:09.740Z,17.75
2023-07-24T07:15:39.696Z,12.50
2023-07-24T07:18:08.239Z,13.20
2023-07-24T07:20:36.755Z,11.25
2023-07-24T07:23:05.250Z,8.60
2023-07-24T07:25:33.716Z,14.05
2023-07-24T07:28:02.115Z,16.02
2023-07-24T07:30:30.571Z,11.82
2023-07-24T07:33:00.573Z,11.63
2023-07-24T07:35:29.196Z,14.98
2023-07-24T07:37:57.795Z,10.52
2023-07-24T07:40:28.034Z,11.60
2023-07-24T07:42:56.680Z,9.73
2023-07-24T07:45:25.655Z,10.55
2023-07-24T07:47:54.852Z,10.40
2023-07-24T07:50:24.722Z,10.68
2023-07-24T07:52:54.037Z,5.90
2023-07-24T07:55:22.531Z,12.52
2023-07-24T07:57:51.041Z,11.25
2023-07-24T08:00:19.809Z,11.65
2023-07-24T08:02:48.462Z,7.72
2023-07-24T08:05:21.359Z,8.95
2023-07-24T08:07:51.518Z,6.30
2023-07-24T08:10:20.159Z,8.18
2023-07-24T08:12:48.908Z,9.38
2023-07-24T08:15:17.366Z,8.18
2023-07-24T08:17:45.933Z,8.02
2023-07-24T08:20:14.649Z,10.50
2023-07-24T08:22:43.059Z,13.30
2023-07-24T08:25:13.422Z,13.00
2023-07-24T08:27:55.067Z,7.18
2023-07-24T08:30:29.831Z,8.98
2023-07-24T08:32:58.965Z,8.68
2023-07-24T08:35:27.619Z,10.65
2023-07-24T08:37:56.322Z,8.75
2023-07-24T08:40:25.980Z,9.00
2023-07-24T08:42:54.792Z,6.50
2023-07-24T08:45:23.494Z,7.75
2023-07-24T08:47:53.241Z,5.07
2023-07-24T08:50:22.843Z,8.10
2023-07-24T08:52:51.563Z,9.55
2023-07-24T08:55:20.652Z,9.75
2023-07-24T08:57:50.573Z,7.57
2023-07-24T09:00:19.497Z,9.50
2023-07-24T09:02:48.568Z,4.80
2023-07-24T09:05:18.045Z,11.23
2023-07-24T09:07:47.981Z,8.15
2023-07-24T09:10:16.833Z,9.50
2023-07-24T09:12:45.296Z,8.30
2023-07-24T09:15:15.244Z,9.40
2023-07-24T09:17:51.639Z,9.32
2023-07-24T09:20:32.235Z,11.43
2023-07-24T09:23:15.144Z,7.45
2023-07-24T09:25:47.678Z,9.68
2023-07-24T09:28:18.946Z,6.80
2023-07-24T09:30:56.598Z,7.32
2023-07-24T09:33:25.574Z,6.80
2023-07-24T09:36:00.934Z,9.25
2023-07-24T09:38:29.291Z,8.82
2023-07-24T09:40:58.892Z,6.72
2023-07-24T09:43:37.979Z,9.38
2023-07-24T09:46:10.971Z,11.02
2023-07-24T09:48:43.271Z,9.13
2023-07-24T09:51:31.808Z,11.50
2023-07-24T09:54:08.241Z,7.15
2023-07-24T09:56:49.036Z,7.80
2023-07-24T09:59:20.842Z,6.75
2023-07-24T10:01:51.090Z,11.13
2023-07-24T10:04:20.387Z,6.45
2023-07-24T10:06:49.349Z,8.20
2023-07-24T10:09:20.412Z,9.52
2023-07-24T10:11:48.872Z,11.20
2023-07-24T10:14:17.913Z,13.00
2023-07-24T10:16:47.588Z,6.82
2023-07-24T10:19:18.195Z,9.00
2023-07-24T10:21:50.170Z,11.10
2023-07-24T10:24:31.519Z,8.15
2023-07-24T10:27:08.224Z,9.32
2023-07-24T10:29:40.073Z,8.45
2023-07-24T10:32:20.370Z,7.10
2023-07-24T10:34:58.508Z,10.18
2023-07-24T10:37:35.252Z,10.60
2023-07-24T10:40:04.437Z,8.23
2023-07-24T10:42:34.999Z,5.50
2023-07-24T10:45:07.893Z,7.93
2023-07-24T10:47:36.326Z,7.45
2023-07-24T10:50:06.912Z,5.05
2023-07-24T10:52:36.004Z,5.65
2023-07-24T10:55:04.902Z,8.18
2023-07-24T10:57:33.418Z,5.57
2023-07-24T11:00:02.487Z,5.32
2023-07-24T11:02:31.779Z,4.88
2023-07-24T11:05:02.234Z,5.75
2023-07-24T11:07:36.281Z,5.15
2023-07-24T11:10:05.025Z,7.78
2023-07-24T11:12:33.445Z,5.82
2023-07-24T11:15:01.860Z,7.57
2023-07-24T11:17:38.431Z,11.18
2023-07-24T11:20:12.556Z,7.80
2023-07-24T11:22:43.892Z,6.65
2023-07-24T11:25:13.058Z,9.23
2023-07-24T11:27:43.810Z,6.60
2023-07-24T11:30:13.157Z,4.45
2023-07-24T11:32:42.773Z,9.18
2023-07-24T11:35:11.714Z,7.85
2023-07-24T11:37:40.414Z,6.18
2023-07-24T11:40:11.968Z,4.57
2023-07-24T11:42:41.692Z,7.78
2023-07-24T11:45:11.797Z,13.15
2023-07-24T11:47:50.371Z,10.02
2023-07-24T11:50:19.680Z,9.13
2023-07-24T11:52:49.900Z,5.18
2023-07-24T11:55:21.032Z,7.18
2023-07-24T11:58:07.151Z,6.72
2023-07-24T12:00:38.016Z,7.80
2023-07-24T12:03:08.736Z,7.95
2023-07-24T12:05:41.406Z,6.85
2023-07-24T12:08:09.946Z,12.00
2023-07-24T12:10:41.039Z,6.93
2023-07-24T12:13:10.049Z,6.63
2023-07-24T12:15:38.955Z,9.48
2023-07-24T12:18:07.954Z,6.53
2023-07-24T12:20:37.034Z,8.27
2023-07-24T12:23:05.672Z,7.97
2023-07-24T12:25:34.170Z,9.02
2023-07-24T12:28:04.027Z,12.57
2023-07-24T12:30:33.027Z,10.00
2023-07-24T12:33:01.591Z,9.73
2023-07-24T12:35:30.071Z,9.13
2023-07-24T12:37:58.681Z,9.30
2023-07-24T12:40:27.417Z,9.70
2023-07-24T12:42:55.848Z,7.75
2023-07-24T12:45:25.530Z,7.13
2023-07-24T12:47:56.469Z,6.15
2023-07-24T12:50:25.793Z,9.27
2023-07-24T12:52:54.540Z,6.00
2023-07-24T12:55:23.438Z,7.88
2023-07-24T12:57:51.840Z,8.02
2023-07-24T13:00:20.424Z,8.30
2023-07-24T13:02:50.553Z,10.73
2023-07-24T13:05:19.178Z,6.25
2023-07-24T13:07:47.781Z,7.85
2023-07-24T13:10:16.270Z,8.35
2023-07-24T13:12:45.661Z,5.50
2023-07-24T13:15:14.188Z,6.65
2023-07-24T13:17:42.754Z,13.05
2023-07-24T13:20:13.970Z,5.38
2023-07-24T13:22:44.329Z,4.03
2023-07-24T13:25:12.733Z,4.63
2023-07-24T13:27:41.148Z,4.93
2023-07-24T13:30:10.064Z,3.20
2023-07-24T13:32:38.682Z,4.40
2023-07-24T13:35:07.871Z,6.00
2023-07-24T13:37:37.698Z,8.70
2023-07-24T13:40:07.194Z,3.58
2023-07-24T13:42:35.617Z,5.30
2023-07-24T13:45:04.724Z,5.72
2023-07-24T13:47:33.116Z,3.22
2023-07-24T13:50:04.434Z,6.20
2023-07-24T13:52:32.832Z,3.63
2023-07-24T13:55:02.832Z,5.80
2023-07-24T13:57:31.317Z,5.00
2023-07-24T13:59:59.708Z,5.00
2023-07-24T14:02:28.199Z,2.75
2023-07-24T14:04:56.523Z,2.92
2023-07-24T14:07:25.356Z,3.35
2023-07-24T14:09:53.776Z,4.15
2023-07-24T14:12:23.583Z,4.93
2023-07-24T14:14:52.236Z,4.20
2023-07-24T14:17:20.919Z,0.95
2023-07-24T14:19:49.594Z,2.47
2023-07-24T14:22:18.176Z,0.50
2023-07-24T14:24:47.803Z,4.55
2023-07-24T14:27:16.491Z,3.00
2023-07-24T14:29:46.415Z,2.25
2023-07-24T14:32:16.525Z,3.72
2023-07-24T14:34:44.985Z,3.70
2023-07-24T14:37:13.478Z,2.00
2023-07-24T14:39:41.746Z,2.90
2023-07-24T14:42:10.206Z,1.70
2023-07-24T14:44:38.709Z,2.80
2023-07-24T14:47:09.485Z,2.90
2023-07-24T14:49:38.031Z,2.67
2023-07-24T14:52:07.092Z,4.25
2023-07-24T14:54:38.629Z,1.90
2023-07-24T14:57:19.235Z,2.38
2023-07-24T14:59:53.109Z,3.38
2023-07-24T15:02:23.068Z,2.45
2023-07-24T15:04:51.911Z,1.73
2023-07-24T15:07:20.388Z,2.05
2023-07-24T15:09:48.814Z,5.78
2023-07-24T15:12:17.372Z,4.57
2023-07-24T15:14:45.914Z,3.63
2023-07-24T15:17:15.866Z,3.30
2023-07-24T15:19:45.660Z,3.17
2023-07-24T15:22:14.478Z,1.48
2023-07-24T15:24:43.284Z,2.53
2023-07-24T15:27:11.861Z,1.65
2023-07-24T15:29:40.439Z,3.15
2023-07-24T15:32:09.900Z,4.72
2023-07-24T15:34:39.846Z,3.80
2023-07-24T15:37:11.114Z,1.35
2023-07-24T15:39:39.775Z,10.85
2023-07-24T15:42:09.239Z,4.50
2023-07-24T15:44:37.750Z,3.92
2023-07-24T15:47:06.564Z,3.47
2023-07-24T15:49:35.078Z,4.30
2023-07-24T15:52:03.564Z,3.53
2023-07-24T15:54:33.277Z,4.07
2023-07-24T15:57:01.698Z,6.93
2023-07-24T15:59:30.123Z,4.82
2023-07-24T16:01:58.521Z,5.00
2023-07-24T16:04:27.202Z,2.75
2023-07-24T16:06:55.714Z,2.72
2023-07-24T16:09:24.177Z,1.98
2023-07-24T16:11:54.088Z,3.58
2023-07-24T16:14:22.734Z,4.07
2023-07-24T16:16:51.140Z,4.32
2023-07-24T16:19:22.556Z,5.10
2023-07-24T16:21:52.363Z,5.75
2023-07-24T16:24:21.729Z,4.93
2023-07-24T16:26:50.999Z,4.45
2023-07-24T16:29:20.955Z,4.32
2023-07-24T16:31:49.635Z,4.43
2023-07-24T16:34:18.453Z,6.63
2023-07-24T16:36:46.885Z,7.68
2023-07-24T16:39:15.501Z,5.60
2023-07-24T16:41:44.030Z,4.70
2023-07-24T16:44:15.311Z,5.95
2023-07-24T16:46:45.264Z,7.47
2023-07-24T16:49:13.774Z,5.75
2023-07-24T16:51:42.364Z,4.88
2023-07-24T16:54:12.893Z,7.18
2023-07-24T16:56:42.106Z,5.93
2023-07-24T16:59:10.519Z,5.32
2023-07-24T17:01:39.022Z,6.80
2023-07-24T17:04:08.868Z,5.80
2023-07-24T17:06:37.693Z,5.47
2023-07-24T17:09:06.418Z,5.32
2023-07-24T17:11:35.304Z,4.95
2023-07-24T17:14:03.849Z,7.80
2023-07-24T17:16:32.462Z,6.53
2023-07-24T17:19:00.996Z,4.97
2023-07-24T17:21:31.234Z,5.55
2023-07-24T17:23:59.923Z,6.03
2023-07-24T17:26:32.283Z,5.47
2023-07-24T17:29:02.732Z,7.82
2023-07-24T17:31:31.394Z,4.07
2023-07-24T17:34:03.483Z,9.20
2023-07-24T17:36:34.648Z,7.25
2023-07-24T17:39:03.950Z,8.02
2023-07-24T17:41:32.712Z,7.70
2023-07-24T17:44:07.539Z,8.43
2023-07-24T17:46:39.292Z,11.50
2023-07-24T17:49:10.844Z,5.95
2023-07-24T17:51:42.072Z,6.13
2023-07-24T17:54:10.499Z,7.25
2023-07-24T17:56:39.155Z,5.95
2023-07-24T17:59:07.611Z,8.80
2023-07-24T18:01:36.581Z,6.00
2023-07-24T18:04:05.358Z,5.53
2023-07-24T18:06:33.805Z,6.85
2023-07-24T18:09:03.538Z,6.38
2023-07-24T18:11:32.403Z,6.45
2023-07-24T18:14:02.609Z,4.82
2023-07-24T18:16:32.534Z,9.05
2023-07-24T18:19:03.803Z,8.45
2023-07-24T18:21:34.130Z,10.13
2023-07-24T18:24:09.507Z,6.55
2023-07-24T18:26:41.209Z,8.27
2023-07-24T18:29:14.117Z,7.05
2023-07-24T18:31:44.201Z,5.82
2023-07-24T18:34:15.796Z,7.88
2023-07-24T18:36:45.653Z,6.22
2023-07-24T18:39:18.897Z,7.30
2023-07-24T18:41:48.903Z,6.63
2023-07-24T18:44:21.286Z,8.93
2023-07-24T18:46:49.954Z,9.13
2023-07-24T18:49:18.378Z,11.07
2023-07-24T18:51:46.832Z,6.50
2023-07-24T18:54:16.599Z,8.05
2023-07-24T18:56:45.172Z,9.23
2023-07-24T18:59:13.541Z,4.55
2023-07-24T19:01:43.252Z,6.50
2023-07-24T19:04:12.074Z,6.72
2023-07-24T19:06:40.722Z,6.65
2023-07-24T19:09:09.298Z,8.57
2023-07-24T19:11:39.065Z,9.68
2023-07-24T19:14:07.449Z,4.65
2023-07-24T19:16:36.412Z,5.90
2023-07-24T19:19:07.434Z,6.10
2023-07-24T19:21:36.436Z,6.70
2023-07-24T19:24:05.235Z,5.13
2023-07-24T19:26:33.724Z,4.43
2023-07-24T19:29:03.306Z,4.55
2023-07-24T19:31:32.570Z,4.65
2023-07-24T19:34:01.375Z,9.15
2023-07-24T19:36:29.880Z,4.93
2023-07-24T19:38:58.524Z,6.65
2023-07-24T19:41:27.258Z,3.72
2023-07-24T19:43:55.946Z,4.68
2023-07-24T19:46:25.850Z,5.55
2023-07-24T19:48:54.582Z,8.57
2023-07-24T19:51:22.990Z,7.57
2023-07-24T19:53:51.525Z,8.07
2023-07-24T19:56:19.972Z,5.93
2023-07-24T19:58:48.687Z,5.50
2023-07-24T20:01:17.406Z,11.02
2023-07-24T20:03:47.512Z,10.27
2023-07-24T20:06:16.022Z,6.55
2023-07-24T20:08:44.613Z,9.07
2023-07-24T20:11:13.232Z,6.70
2023-07-24T20:13:41.698Z,5.65
2023-07-24T20:16:10.299Z,7.85
2023-07-24T20:18:38.845Z,10.18
2023-07-24T20:21:08.624Z,9.13
2023-07-24T20:23:37.260Z,12.75
2023-07-24T20:26:05.736Z,11.23
2023-07-24T20:28:34.068Z,9.63
2023-07-24T20:31:03.005Z,6.93
2023-07-24T20:33:31.510Z,6.07
2023-07-24T20:36:00.059Z,3.70
2023-07-24T20:38:30.930Z,6.05
2023-07-24T20:41:00.368Z,4.80
2023-07-24T20:43:28.889Z,11.07
2023-07-24T20:45:57.579Z,6.63
2023-07-24T20:48:27.524Z,9.93
2023-07-24T20:50:56.030Z,6.88
2023-07-24T20:53:24.622Z,7.75
2023-07-24T20:55:54.305Z,8.65
2023-07-24T20:58:23.052Z,6.60
2023-07-24T21:00:51.725Z,9.43
2023-07-24T21:03:20.566Z,5.32
2023-07-24T21:05:49.230Z,9.38
2023-07-24T21:08:17.778Z,5.32
2023-07-24T21:10:46.208Z,12.45
2023-07-24T21:13:15.871Z,10.07
2023-07-24T21:15:44.919Z,5.93
2023-07-24T21:18:13.563Z,10.63
2023-07-24T21:20:42.922Z,8.48
2023-07-24T21:23:11.740Z,8.70
2023-07-24T21:25:43.828Z,7.65
2023-07-24T21:28:14.158Z,7.50
2023-07-24T21:30:44.068Z,9.75
2023-07-24T21:33:12.555Z,9.50
2023-07-24T21:35:41.047Z,7.03
2023-07-24T21:38:09.685Z,11.50
2023-07-24T21:40:38.133Z,9.30
2023-07-24T21:43:08.118Z,5.93
2023-07-24T21:45:36.698Z,7.28
2023-07-24T21:48:07.334Z,9.35
2023-07-24T21:50:35.838Z,4.53
2023-07-24T21:53:08.032Z,8.32
2023-07-24T21:55:39.748Z,8.23
2023-07-24T21:58:08.706Z,8.35
2023-07-24T22:00:37.467Z,4.72
2023-07-24T22:03:08.228Z,8.68
2023-07-24T22:05:36.794Z,7.63
2023-07-24T22:08:05.568Z,6.03
2023-07-24T22:10:34.230Z,6.75
2023-07-24T22:13:02.702Z,5.45
2023-07-24T22:15:31.174Z,6.32
2023-07-24T22:17:59.710Z,8.05
2023-07-24T22:20:39.855Z,8.90
2023-07-24T22:23:09.672Z,5.05
2023-07-24T22:25:39.743Z,8.55
2023-07-24T22:28:08.441Z,5.82
2023-07-24T22:30:36.868Z,10.23
2023-07-24T22:33:05.619Z,9.13
2023-07-24T22:35:35.396Z,5.65
2023-07-24T22:38:04.215Z,8.68
2023-07-24T22:40:33.303Z,5.40
2023-07-24T22:43:02.054Z,7.93
2023-07-24T22:45:30.554Z,6.63
2023-07-24T22:47:59.167Z,8.18
2023-07-24T22:50:27.686Z,8.15
2023-07-24T22:52:57.633Z,8.23
2023-07-24T22:55:26.118Z,4.28
2023-07-24T22:57:57.446Z,7.18
2023-07-24T23:00:26.839Z,6.63
2023-07-24T23:02:55.981Z,6.47
2023-07-24T23:05:24.615Z,8.50
2023-07-24T23:07:56.192Z,8.15
2023-07-24T23:10:26.049Z,7.97
2023-07-24T23:12:54.583Z,8.90
2023-07-24T23:15:22.980Z,8.93
2023-07-24T23:17:51.582Z,8.60
2023-07-24T23:20:20.222Z,7.15
2023-07-24T23:22:48.923Z,5.78
2023-07-24T23:25:17.331Z,10.43
2023-07-24T23:27:47.256Z,8.52
2023-07-24T23:30:15.719Z,9.20
2023-07-24T23:32:44.592Z,8.50
2023-07-24T23:35:13.092Z,8.10
2023-07-24T23:37:41.590Z,6.10
2023-07-24T23:40:10.779Z,4.78
2023-07-24T23:42:39.256Z,8.68
2023-07-24T23:45:10.767Z,8.77
2023-07-24T23:47:39.247Z,8.75
2023-07-24T23:50:08.407Z,4.78
2023-07-24T23:52:36.931Z,5.85
2023-07-24T23:55:05.639Z,6.35
2023-07-24T23:57:34.522Z,10.73
